Peace River Airport
CYPE : now visible

Airfield :











YOU CAN JOIN US ON...

 
LOGIN :

Register | Disclaimer

   EN    FR    IT 

 









Legend :    VFR   Marginal VFR   IFR   Intensive IFR   Very Intensive IFR
Visi :
Ceiling :
>= 8 km
>= 3000ft
5 to 8 km
1000 to 3000 ft
1500m to 5 km
500 to 1000 ft
800 to 1500m
200 to 500 ft
< 800m
< 200 ft
Symbols :   Thunderstorms  Fog  Heavy snow  Heavy precipitations  Wind > 20 kt







- Airport Elevation : 1873 ft
- IATA code : YPE


CYPE - Peace River

CURRENT METAR :
  • 160536Z 35004KT 8SM FEW006 SCT079 OVC110 10/10 A2966 RMK ST1AC2AC5 VIS 4 E BR SLP059 DENSITY ALT 2100FT

EXPIRED METARs :
  • 160500Z 02006KT 8SM -RA FEW016 BKN080 OVC100 10/10 A2966 RMK SC2AC3AC3 SLP058 DENSITY ALT 2100FT
  • 160408Z 01005KT 8SM -RA SCT016 BKN064 OVC100 10/10 A2968 RMK SC3SC2AC3 SLP064 DENSITY ALT 2100FT
  • 160400Z 36005KT 8SM -RA BKN016 BKN058 OVC095 10/10 A2968 RMK SC5SC2AC1 SLP066 DENSITY ALT 2100FT
  • 160348Z 34003KT 6SM -RA BR BKN016 OVC045 11/10 A2968 RMK SC7SC1 SLP068 DENSITY ALT 2100FT
  • 160335Z 35003KT 5SM -RA BR BKN012 OVC045 11/10 A2969 RMK SC6SC2 SLP069 DENSITY ALT 2100FT
  • 160300Z 35004KT 6SM -RA BR BKN015 OVC053 11/10 A2969 RMK SC5SC3 SLP070 DENSITY ALT 2100FT

TAF AMD TAF CYPE
Valid from the 16 at 05:00 until the 16 at 13:00 UTC


160515Z 1605/1613 07008KT P6SM SCT020 BKN070
TEMPO 1605/1607 5SM -SHRA BR BKN020 BKN070
FM160700 VRB03KT P6SM BKN012 OVC040
TEMPO 1607/1613 5SM -SHRA BR OVC008 RMK NXT FCST BY 160700Z
No reported NOTAMs for that airfield.



MET'MAP, your aeronautical weather chart ! - Copyright ORBIFLY December 2007 - Disclaimer

ORBIFLY MET'MAP TEAM :

Programming & Development : Alexandra Zaïnal
Concept & Development : Baudouin d'Aumeries
Co-Development & Prog : Marc-Olivier Méhu
Technical & hardware support : Manuel Goepfert

Contact : metmap@orbifly.com




SOURCES & CREDITS :

   NOAA       Earth
Advisory